createdAt,value
2018-04-09T19:51:21.350Z,803.23
2018-04-09T19:53:27.090Z,226.77
2018-04-09T19:55:32.497Z,725.87
2018-04-09T19:57:38.726Z,705.03
2018-04-09T19:59:44.225Z,585.50
2018-04-09T20:01:49.550Z,522.30
2018-04-09T20:03:55.500Z,124.63
2018-04-09T20:06:00.843Z,54.30
2018-04-09T20:08:06.464Z,445.17
2018-04-09T20:10:12.212Z,756.57
2018-04-09T20:12:17.820Z,512.70
2018-04-09T20:14:23.366Z,280.00
2018-04-09T20:16:28.981Z,999.90
2018-04-09T20:18:34.349Z,611.63
2018-04-09T20:20:39.646Z,483.60
2018-04-09T20:22:45.387Z,792.17
2018-04-09T20:24:50.823Z,846.20
2018-04-09T20:26:56.271Z,827.23
2018-04-09T20:29:01.987Z,720.37
2018-04-09T20:31:07.352Z,283.23
2018-04-09T20:33:12.753Z,774.80
2018-04-09T20:35:19.070Z,944.10
2018-04-09T20:37:24.482Z,448.77
2018-04-09T20:39:29.791Z,132.30
2018-04-09T20:41:35.502Z,283.90
2018-04-09T20:43:40.861Z,667.93
2018-04-09T20:45:46.412Z,225.63
2018-04-09T20:47:52.223Z,556.80
2018-04-09T20:49:57.639Z,377.23
2018-04-09T20:52:03.010Z,679.13
2018-04-09T20:54:08.695Z,795.33
2018-04-09T20:56:14.114Z,552.60
2018-04-09T20:58:19.503Z,663.47
2018-04-09T21:00:26.177Z,554.53
2018-04-09T21:02:31.566Z,986.27
2018-04-09T21:04:37.085Z,590.83
2018-04-09T21:06:42.793Z,798.40
2018-04-09T21:08:48.198Z,693.77
2018-04-09T21:10:53.621Z,178.67
2018-04-09T21:12:59.375Z,564.13
2018-04-09T21:15:04.754Z,419.73
2018-04-09T21:17:10.160Z,91.07
2018-04-09T21:19:15.915Z,50.27
2018-04-09T21:21:21.348Z,357.93
2018-04-09T21:23:26.766Z,125.93
2018-04-09T21:25:32.505Z,77.07
2018-04-09T21:27:38.009Z,706.20
2018-04-09T21:29:43.403Z,182.47
2018-04-09T21:31:50.298Z,57.80
2018-04-09T21:33:55.735Z,46.80
2018-04-09T21:36:01.154Z,762.77
2018-04-09T21:38:06.889Z,679.70
2018-04-09T21:40:12.249Z,983.70
2018-04-09T21:42:17.651Z,931.40
2018-04-09T21:44:23.330Z,377.43
2018-04-09T21:46:28.630Z,756.47
2018-04-09T21:48:34.023Z,788.90
2018-04-09T21:50:39.666Z,999.90
2018-04-09T21:52:44.999Z,910.63
2018-04-09T21:54:50.379Z,441.57
2018-04-09T21:56:56.714Z,137.97
2018-04-09T22:05:01.006Z,529.17
2018-04-09T22:07:10.341Z,371.07
2018-04-09T22:09:19.415Z,627.53
2018-04-09T22:11:31.835Z,774.23
2018-04-09T22:13:44.515Z,223.60
2018-04-09T22:15:53.768Z,384.03
2018-04-09T22:18:04.691Z,136.20
2018-04-09T22:20:13.319Z,49.53
2018-04-09T22:22:22.697Z,419.53
2018-04-09T22:24:32.261Z,495.73
2018-04-09T22:26:42.617Z,98.90
2018-04-09T22:28:52.373Z,635.87
2018-04-09T22:31:01.700Z,248.33
2018-04-09T22:33:11.061Z,146.97
2018-04-09T22:35:21.279Z,181.00
2018-04-09T22:37:30.191Z,47.23
2018-04-09T22:39:38.412Z,43.87
2018-04-09T22:41:46.983Z,39.53
2018-04-09T22:43:57.848Z,37.97
2018-04-09T22:46:10.908Z,40.17
2018-04-09T22:48:21.755Z,36.63
2018-04-09T22:50:30.962Z,36.83
2018-04-09T22:54:53.069Z,37.17
2018-04-09T22:57:01.844Z,37.73
2018-04-09T22:59:11.811Z,37.80
2018-04-09T23:01:20.211Z,40.73
2018-04-09T23:03:29.459Z,37.30
2018-04-09T23:05:37.731Z,38.27
2018-04-09T23:07:46.121Z,37.73
2018-04-09T23:09:55.056Z,35.70
2018-04-09T23:12:03.376Z,35.57
2018-04-09T23:14:11.944Z,38.40
2018-04-09T23:16:20.645Z,39.27
2018-04-09T23:18:29.075Z,37.50
2018-04-09T23:20:37.388Z,37.80
2018-04-09T23:22:45.779Z,38.43
2018-04-09T23:24:53.537Z,40.77
2018-04-09T23:27:02.378Z,36.77
2018-04-09T23:29:10.461Z,38.93
2018-04-09T23:31:18.579Z,39.03
2018-04-09T23:33:27.012Z,36.53
2018-04-09T23:35:33.535Z,37.63
2018-04-09T23:37:40.350Z,38.10
2018-04-09T23:39:47.631Z,37.57
2018-04-09T23:41:54.801Z,38.47
2018-04-09T23:44:01.548Z,39.37
2018-04-09T23:46:08.190Z,36.70
2018-04-09T23:48:15.039Z,36.90
2018-04-09T23:50:21.004Z,35.77
2018-04-09T23:52:26.287Z,37.20
2018-04-09T23:54:32.559Z,37.37
2018-04-09T23:56:38.231Z,37.70
2018-04-09T23:58:43.927Z,37.57
